PWSweather.com
Personal Weather Stations
Station Observations
KOHAVON11
Long Road Station, Avon, OH 44011

Long Road StationAvon, OH 44011

Lat: 41.437, Lon: -82.0477

Elevation: 686

Station Type: Davis Vantage Pro2

http://www.avon-weather.com

High Low Average
Temperature 18.8°F-7.3°C 14.0°F-10.0°C 16.4°F-8.7°C
Dew Point 6.4°F-14.2°C 1.1°F-17.2°C 3.6°F-15.8°C
Winds 16.0 mph 25.7 kmh 1.0 mph 1.6 kmh 7.0 mph W11.3 kmh W
Wind Gusts 22.0 mph35.4 kmh 3.0 mph4.8 kmh 15.0 mph24.1 kmh
Humidity 66% 50% 57%
Pressure 30.47 in1031.8 mb 30.21 in1023.0 mb -
Precipitation 0.00 in0.0 mm - -
Hour Temp Dew Point Humidity Winds Wind Gusts Pressure Precip Precip Rate Daily Precip Total
12:02 AM 16.7°F-8.5°C 5.1°F-14.9°C 60% 5.0 mph WNW8.0 kmh WNW 18.0 mph29.0 kmh 30.21 in1023.0 mb 0.00 in0.0 mm 0.00 in0.0 mm 0.00 in0.0 mm
12:07 AM 16.6°F-8.6°C 4.6°F-15.2°C 59% 7.0 mph WNW11.3 kmh WNW 18.0 mph29.0 kmh 30.22 in1023.4 mb 0.00 in0.0 mm 0.00 in0.0 mm 0.00 in0.0 mm
12:12 AM 16.5°F-8.6°C 4.5°F-15.3°C 59% 8.0 mph NW12.9 kmh NW 19.0 mph30.6 kmh 30.22 in1023.4 mb 0.00 in0.0 mm 0.00 in0.0 mm 0.00 in0.0 mm
12:17 AM 16.4°F-8.7°C 4.4°F-15.3°C 59% 11.0 mph WNW17.7 kmh WNW 19.0 mph30.6 kmh 30.22 in1023.4 mb 0.00 in0.0 mm 0.00 in0.0 mm 0.00 in0.0 mm
12:22 AM 16.4°F-8.7°C 4.4°F-15.3°C 59% 11.0 mph WNW17.7 kmh WNW 19.0 mph30.6 kmh 30.22 in1023.4 mb 0.00 in0.0 mm 0.00 in0.0 mm 0.00 in0.0 mm
12:27 AM 16.2°F-8.8°C 4.6°F-15.2°C 60% 9.0 mph NW14.5 kmh NW 19.0 mph30.6 kmh 30.22 in1023.4 mb 0.00 in0.0 mm 0.00 in0.0 mm 0.00 in0.0 mm
12:32 AM 16.1°F-8.8°C 4.5°F-15.3°C 60% 9.0 mph NW14.5 kmh NW 18.0 mph29.0 kmh 30.23 in1023.7 mb 0.00 in0.0 mm 0.00 in0.0 mm 0.00 in0.0 mm
12:37 AM 16.0°F-8.9°C 4.4°F-15.3°C 60% 6.0 mph NW9.7 kmh NW 18.0 mph29.0 kmh 30.23 in1023.7 mb 0.00 in0.0 mm 0.00 in0.0 mm 0.00 in0.0 mm
12:42 AM 16.1°F-8.8°C 4.9°F-15.1°C 61% 9.0 mph NW14.5 kmh NW 14.0 mph22.5 kmh 30.23 in1023.7 mb 0.00 in0.0 mm 0.00 in0.0 mm 0.00 in0.0 mm
12:47 AM 16.0°F-8.9°C 4.8°F-15.1°C 61% 11.0 mph WNW17.7 kmh WNW 17.0 mph27.4 kmh 30.23 in1023.7 mb 0.00 in0.0 mm 0.00 in0.0 mm 0.00 in0.0 mm
12:52 AM 15.9°F-8.9°C 4.7°F-15.2°C 61% 9.0 mph WNW14.5 kmh WNW 17.0 mph27.4 kmh 30.23 in1023.7 mb 0.00 in0.0 mm 0.00 in0.0 mm 0.00 in0.0 mm
12:57 AM 15.7°F-9.1°C 4.5°F-15.3°C 61% 8.0 mph NW12.9 kmh NW 17.0 mph27.4 kmh 30.24 in1024.0 mb 0.00 in0.0 mm 0.00 in0.0 mm 0.00 in0.0 mm
01:02 AM 15.5°F-9.2°C 4.3°F-15.4°C 61% 4.0 mph NW6.4 kmh NW 17.0 mph27.4 kmh 30.24 in1024.0 mb 0.00 in0.0 mm 0.00 in0.0 mm 0.00 in0.0 mm
01:07 AM 15.4°F-9.2°C 4.2°F-15.4°C 61% 6.0 mph NW9.7 kmh NW 17.0 mph27.4 kmh 30.24 in1024.0 mb 0.00 in0.0 mm 0.00 in0.0 mm 0.00 in0.0 mm
01:12 AM 15.3°F-9.3°C 4.1°F-15.5°C 61% 5.0 mph WNW8.0 kmh WNW 17.0 mph27.4 kmh 30.24 in1024.0 mb 0.00 in0.0 mm 0.00 in0.0 mm 0.00 in0.0 mm
01:17 AM 15.3°F-9.3°C 4.5°F-15.3°C 62% 8.0 mph NW12.9 kmh NW 16.0 mph25.7 kmh 30.25 in1024.4 mb 0.00 in0.0 mm 0.00 in0.0 mm 0.00 in0.0 mm
01:22 AM 15.2°F-9.3°C 4.8°F-15.1°C 63% 7.0 mph WNW11.3 kmh WNW 16.0 mph25.7 kmh 30.25 in1024.4 mb 0.00 in0.0 mm 0.00 in0.0 mm 0.00 in0.0 mm
01:27 AM 15.0°F-9.4°C 4.9°F-15.1°C 64% 5.0 mph NW8.0 kmh NW 14.0 mph22.5 kmh 30.25 in1024.4 mb 0.00 in0.0 mm 0.00 in0.0 mm 0.00 in0.0 mm
01:32 AM 15.0°F-9.4°C 4.9°F-15.1°C 64% 4.0 mph W6.4 kmh W 14.0 mph22.5 kmh 30.25 in1024.4 mb 0.00 in0.0 mm 0.00 in0.0 mm 0.00 in0.0 mm
01:37 AM 14.9°F-9.5°C 5.2°F-14.9°C 65% 10.0 mph WNW16.1 kmh WNW 16.0 mph25.7 kmh 30.25 in1024.4 mb 0.00 in0.0 mm 0.00 in0.0 mm 0.00 in0.0 mm
01:42 AM 14.8°F-9.6°C 5.1°F-14.9°C 65% 5.0 mph WNW8.0 kmh WNW 16.0 mph25.7 kmh 30.25 in1024.4 mb 0.00 in0.0 mm 0.00 in0.0 mm 0.00 in0.0 mm
01:47 AM 14.8°F-9.6°C 5.1°F-14.9°C 65% 7.0 mph NW11.3 kmh NW 16.0 mph25.7 kmh 30.25 in1024.4 mb 0.00 in0.0 mm 0.00 in0.0 mm 0.00 in0.0 mm
01:52 AM 14.7°F-9.6°C 5.3°F-14.8°C 66% 5.0 mph W8.0 kmh W 16.0 mph25.7 kmh 30.25 in1024.4 mb 0.00 in0.0 mm 0.00 in0.0 mm 0.00 in0.0 mm
01:57 AM 14.6°F-9.7°C 5.2°F-14.9°C 66% 3.0 mph NW4.8 kmh NW 16.0 mph25.7 kmh 30.26 in1024.7 mb 0.00 in0.0 mm 0.00 in0.0 mm 0.00 in0.0 mm
02:02 AM 14.6°F-9.7°C 4.9°F-15.1°C 65% 11.0 mph WNW17.7 kmh WNW 16.0 mph25.7 kmh 30.26 in1024.7 mb 0.00 in0.0 mm 0.00 in0.0 mm 0.00 in0.0 mm
02:07 AM 14.4°F-9.8°C 4.4°F-15.3°C 64% 6.0 mph WNW9.7 kmh WNW 12.0 mph19.3 kmh 30.26 in1024.7 mb 0.00 in0.0 mm 0.00 in0.0 mm 0.00 in0.0 mm
02:12 AM 14.4°F-9.8°C 3.7°F-15.7°C 62% 7.0 mph WNW11.3 kmh WNW 18.0 mph29.0 kmh 30.26 in1024.7 mb 0.00 in0.0 mm 0.00 in0.0 mm 0.00 in0.0 mm
02:17 AM 14.3°F-9.8°C 2.8°F-16.2°C 60% 3.0 mph NW4.8 kmh NW 18.0 mph29.0 kmh 30.27 in1025.1 mb 0.00 in0.0 mm 0.00 in0.0 mm 0.00 in0.0 mm
02:22 AM 14.3°F-9.8°C 2.8°F-16.2°C 60% 6.0 mph NW9.7 kmh NW 18.0 mph29.0 kmh 30.27 in1025.1 mb 0.00 in0.0 mm 0.00 in0.0 mm 0.00 in0.0 mm
02:27 AM 14.3°F-9.8°C 2.8°F-16.2°C 60% 6.0 mph WNW9.7 kmh WNW 18.0 mph29.0 kmh 30.27 in1025.1 mb 0.00 in0.0 mm 0.00 in0.0 mm 0.00 in0.0 mm
02:32 AM 14.2°F-9.9°C 2.7°F-16.3°C 60% 6.0 mph WNW9.7 kmh WNW 18.0 mph29.0 kmh 30.27 in1025.1 mb 0.00 in0.0 mm 0.00 in0.0 mm 0.00 in0.0 mm
02:37 AM 14.0°F-10.0°C 2.2°F-16.6°C 59% 4.0 mph NW6.4 kmh NW 18.0 mph29.0 kmh 30.27 in1025.1 mb 0.00 in0.0 mm 0.00 in0.0 mm 0.00 in0.0 mm
02:42 AM 14.0°F-10.0°C 1.8°F-16.8°C 58% 5.0 mph NW8.0 kmh NW 18.0 mph29.0 kmh 30.27 in1025.1 mb 0.00 in0.0 mm 0.00 in0.0 mm 0.00 in0.0 mm
02:47 AM 14.0°F-10.0°C 1.8°F-16.8°C 58% 6.0 mph N9.7 kmh N 13.0 mph20.9 kmh 30.27 in1025.1 mb 0.00 in0.0 mm 0.00 in0.0 mm 0.00 in0.0 mm
02:52 AM 14.1°F-9.9°C 1.5°F-16.9°C 57% 7.0 mph NW11.3 kmh NW 13.0 mph20.9 kmh 30.27 in1025.1 mb 0.00 in0.0 mm 0.00 in0.0 mm 0.00 in0.0 mm
02:57 AM 14.1°F-9.9°C 1.5°F-16.9°C 57% 13.0 mph WNW20.9 kmh WNW 13.0 mph20.9 kmh 30.28 in1025.4 mb 0.00 in0.0 mm 0.00 in0.0 mm 0.00 in0.0 mm
03:02 AM 14.1°F-9.9°C 1.1°F-17.2°C 56% 14.0 mph WSW22.5 kmh WSW 14.0 mph22.5 kmh 30.28 in1025.4 mb 0.00 in0.0 mm 0.00 in0.0 mm 0.00 in0.0 mm
03:07 AM 14.2°F-9.9°C 1.2°F-17.1°C 56% 5.0 mph NW8.0 kmh NW 14.0 mph22.5 kmh 30.28 in1025.4 mb 0.00 in0.0 mm 0.00 in0.0 mm 0.00 in0.0 mm
03:12 AM 14.1°F-9.9°C 1.5°F-16.9°C 57% 3.0 mph WNW4.8 kmh WNW 16.0 mph25.7 kmh 30.28 in1025.4 mb 0.00 in0.0 mm 0.00 in0.0 mm 0.00 in0.0 mm
03:17 AM 14.1°F-9.9°C 1.5°F-16.9°C 57% 11.0 mph WNW17.7 kmh WNW 16.0 mph25.7 kmh 30.28 in1025.4 mb 0.00 in0.0 mm 0.00 in0.0 mm 0.00 in0.0 mm
03:22 AM 14.1°F-9.9°C 1.5°F-16.9°C 57% 5.0 mph NW8.0 kmh NW 17.0 mph27.4 kmh 30.28 in1025.4 mb 0.00 in0.0 mm 0.00 in0.0 mm 0.00 in0.0 mm
03:27 AM 14.1°F-9.9°C 1.5°F-16.9°C 57% 8.0 mph WNW12.9 kmh WNW 17.0 mph27.4 kmh 30.28 in1025.4 mb 0.00 in0.0 mm 0.00 in0.0 mm 0.00 in0.0 mm
03:32 AM 14.2°F-9.9°C 1.6°F-16.9°C 57% 6.0 mph NW9.7 kmh NW 17.0 mph27.4 kmh 30.29 in1025.7 mb 0.00 in0.0 mm 0.00 in0.0 mm 0.00 in0.0 mm
03:37 AM 14.2°F-9.9°C 1.6°F-16.9°C 57% 7.0 mph NW11.3 kmh NW 17.0 mph27.4 kmh 30.29 in1025.7 mb 0.00 in0.0 mm 0.00 in0.0 mm 0.00 in0.0 mm
03:42 AM 14.2°F-9.9°C 1.6°F-16.9°C 57% 4.0 mph NW6.4 kmh NW 16.0 mph25.7 kmh 30.29 in1025.7 mb 0.00 in0.0 mm 0.00 in0.0 mm 0.00 in0.0 mm
03:47 AM 14.2°F-9.9°C 1.6°F-16.9°C 57% 11.0 mph WNW17.7 kmh WNW 16.0 mph25.7 kmh 30.29 in1025.7 mb 0.00 in0.0 mm 0.00 in0.0 mm 0.00 in0.0 mm
03:52 AM 14.1°F-9.9°C 1.5°F-16.9°C 57% 8.0 mph WNW12.9 kmh WNW 15.0 mph24.1 kmh 30.29 in1025.7 mb 0.00 in0.0 mm 0.00 in0.0 mm 0.00 in0.0 mm
03:57 AM 14.1°F-9.9°C 1.5°F-16.9°C 57% 5.0 mph NW8.0 kmh NW 15.0 mph24.1 kmh 30.29 in1025.7 mb 0.00 in0.0 mm 0.00 in0.0 mm 0.00 in0.0 mm
04:02 AM 14.0°F-10.0°C 1.4°F-17.0°C 57% 7.0 mph W11.3 kmh W 16.0 mph25.7 kmh 30.29 in1025.7 mb 0.00 in0.0 mm 0.00 in0.0 mm 0.00 in0.0 mm
04:07 AM 14.0°F-10.0°C 1.4°F-17.0°C 57% 5.0 mph W8.0 kmh W 16.0 mph25.7 kmh 30.30 in1026.1 mb 0.00 in0.0 mm 0.00 in0.0 mm 0.00 in0.0 mm
04:12 AM 14.0°F-10.0°C 1.4°F-17.0°C 57% 7.0 mph WNW11.3 kmh WNW 17.0 mph27.4 kmh 30.30 in1026.1 mb 0.00 in0.0 mm 0.00 in0.0 mm 0.00 in0.0 mm
04:17 AM 14.0°F-10.0°C 1.4°F-17.0°C 57% 6.0 mph WNW9.7 kmh WNW 17.0 mph27.4 kmh 30.30 in1026.1 mb 0.00 in0.0 mm 0.00 in0.0 mm 0.00 in0.0 mm
04:22 AM 14.0°F-10.0°C 1.4°F-17.0°C 57% 8.0 mph W12.9 kmh W 17.0 mph27.4 kmh 30.30 in1026.1 mb 0.00 in0.0 mm 0.00 in0.0 mm 0.00 in0.0 mm
04:27 AM 14.0°F-10.0°C 1.4°F-17.0°C 57% 6.0 mph NW9.7 kmh NW 18.0 mph29.0 kmh 30.30 in1026.1 mb 0.00 in0.0 mm 0.00 in0.0 mm 0.00 in0.0 mm
04:32 AM 14.1°F-9.9°C 1.5°F-16.9°C 57% 5.0 mph NW8.0 kmh NW 18.0 mph29.0 kmh 30.30 in1026.1 mb 0.00 in0.0 mm 0.00 in0.0 mm 0.00 in0.0 mm
04:37 AM 14.2°F-9.9°C 1.6°F-16.9°C 57% 13.0 mph W20.9 kmh W 19.0 mph30.6 kmh 30.30 in1026.1 mb 0.00 in0.0 mm 0.00 in0.0 mm 0.00 in0.0 mm
04:42 AM 14.2°F-9.9°C 1.6°F-16.9°C 57% 5.0 mph NW8.0 kmh NW 19.0 mph30.6 kmh 30.30 in1026.1 mb 0.00 in0.0 mm 0.00 in0.0 mm 0.00 in0.0 mm
04:47 AM 14.2°F-9.9°C 1.6°F-16.9°C 57% 11.0 mph NW17.7 kmh NW 19.0 mph30.6 kmh 30.31 in1026.4 mb 0.00 in0.0 mm 0.00 in0.0 mm 0.00 in0.0 mm
04:52 AM 14.2°F-9.9°C 1.2°F-17.1°C 56% 12.0 mph W19.3 kmh W 19.0 mph30.6 kmh 30.31 in1026.4 mb 0.00 in0.0 mm 0.00 in0.0 mm 0.00 in0.0 mm
04:57 AM 14.2°F-9.9°C 1.2°F-17.1°C 56% 9.0 mph WNW14.5 kmh WNW 18.0 mph29.0 kmh 30.31 in1026.4 mb 0.00 in0.0 mm 0.00 in0.0 mm 0.00 in0.0 mm
05:02 AM 14.2°F-9.9°C 1.6°F-16.9°C 57% 12.0 mph WNW19.3 kmh WNW 18.0 mph29.0 kmh 30.31 in1026.4 mb 0.00 in0.0 mm 0.00 in0.0 mm 0.00 in0.0 mm
05:07 AM 14.3°F-9.8°C 1.3°F-17.1°C 56% 11.0 mph NW17.7 kmh NW 18.0 mph29.0 kmh 30.31 in1026.4 mb 0.00 in0.0 mm 0.00 in0.0 mm 0.00 in0.0 mm
05:12 AM 14.3°F-9.8°C 1.3°F-17.1°C 56% 8.0 mph WNW12.9 kmh WNW 18.0 mph29.0 kmh 30.31 in1026.4 mb 0.00 in0.0 mm 0.00 in0.0 mm 0.00 in0.0 mm
05:17 AM 14.3°F-9.8°C 1.7°F-16.8°C 57% 9.0 mph NW14.5 kmh NW 18.0 mph29.0 kmh 30.32 in1026.8 mb 0.00 in0.0 mm 0.00 in0.0 mm 0.00 in0.0 mm
05:22 AM 14.4°F-9.8°C 1.8°F-16.8°C 57% 16.0 mph WNW25.7 kmh WNW 18.0 mph29.0 kmh 30.32 in1026.8 mb 0.00 in0.0 mm 0.00 in0.0 mm 0.00 in0.0 mm
05:27 AM 14.4°F-9.8°C 1.8°F-16.8°C 57% 9.0 mph W14.5 kmh W 17.0 mph27.4 kmh 30.32 in1026.8 mb 0.00 in0.0 mm 0.00 in0.0 mm 0.00 in0.0 mm
05:32 AM 14.4°F-9.8°C 1.8°F-16.8°C 57% 7.0 mph NW11.3 kmh NW 17.0 mph27.4 kmh 30.32 in1026.8 mb 0.00 in0.0 mm 0.00 in0.0 mm 0.00 in0.0 mm
05:37 AM 14.3°F-9.8°C 1.7°F-16.8°C 57% 7.0 mph NW11.3 kmh NW 17.0 mph27.4 kmh 30.32 in1026.8 mb 0.00 in0.0 mm 0.00 in0.0 mm 0.00 in0.0 mm
05:42 AM 14.3°F-9.8°C 1.7°F-16.8°C 57% 10.0 mph W16.1 kmh W 17.0 mph27.4 kmh 30.32 in1026.8 mb 0.00 in0.0 mm 0.00 in0.0 mm 0.00 in0.0 mm
05:47 AM 14.3°F-9.8°C 2.1°F-16.6°C 58% 9.0 mph WNW14.5 kmh WNW 17.0 mph27.4 kmh 30.32 in1026.8 mb 0.00 in0.0 mm 0.00 in0.0 mm 0.00 in0.0 mm
05:52 AM 14.3°F-9.8°C 2.1°F-16.6°C 58% 7.0 mph WNW11.3 kmh WNW 17.0 mph27.4 kmh 30.32 in1026.8 mb 0.00 in0.0 mm 0.00 in0.0 mm 0.00 in0.0 mm
05:57 AM 14.3°F-9.8°C 2.1°F-16.6°C 58% 15.0 mph NW24.1 kmh NW 15.0 mph24.1 kmh 30.32 in1026.8 mb 0.00 in0.0 mm 0.00 in0.0 mm 0.00 in0.0 mm
06:02 AM 14.3°F-9.8°C 2.1°F-16.6°C 58% 3.0 mph W4.8 kmh W 15.0 mph24.1 kmh 30.33 in1027.1 mb 0.00 in0.0 mm 0.00 in0.0 mm 0.00 in0.0 mm
06:07 AM 14.4°F-9.8°C 2.2°F-16.6°C 58% 11.0 mph WNW17.7 kmh WNW 15.0 mph24.1 kmh 30.33 in1027.1 mb 0.00 in0.0 mm 0.00 in0.0 mm 0.00 in0.0 mm
06:12 AM 14.4°F-9.8°C 2.2°F-16.6°C 58% 9.0 mph NW14.5 kmh NW 19.0 mph30.6 kmh 30.33 in1027.1 mb 0.00 in0.0 mm 0.00 in0.0 mm 0.00 in0.0 mm
06:17 AM 14.5°F-9.7°C 2.3°F-16.5°C 58% 12.0 mph WNW19.3 kmh WNW 19.0 mph30.6 kmh 30.33 in1027.1 mb 0.00 in0.0 mm 0.00 in0.0 mm 0.00 in0.0 mm
06:22 AM 14.5°F-9.7°C 2.3°F-16.5°C 58% 10.0 mph NW16.1 kmh NW 19.0 mph30.6 kmh 30.34 in1027.4 mb 0.00 in0.0 mm 0.00 in0.0 mm 0.00 in0.0 mm
06:27 AM 14.5°F-9.7°C 2.3°F-16.5°C 58% 10.0 mph W16.1 kmh W 19.0 mph30.6 kmh 30.34 in1027.4 mb 0.00 in0.0 mm 0.00 in0.0 mm 0.00 in0.0 mm
06:32 AM 14.5°F-9.7°C 1.9°F-16.7°C 57% 10.0 mph NW16.1 kmh NW 17.0 mph27.4 kmh 30.34 in1027.4 mb 0.00 in0.0 mm 0.00 in0.0 mm 0.00 in0.0 mm
06:37 AM 14.5°F-9.7°C 1.9°F-16.7°C 57% 10.0 mph WNW16.1 kmh WNW 17.0 mph27.4 kmh 30.34 in1027.4 mb 0.00 in0.0 mm 0.00 in0.0 mm 0.00 in0.0 mm
06:42 AM 14.6°F-9.7°C 2.4°F-16.4°C 58% 6.0 mph W9.7 kmh W 15.0 mph24.1 kmh 30.34 in1027.4 mb 0.00 in0.0 mm 0.00 in0.0 mm 0.00 in0.0 mm
06:47 AM 14.6°F-9.7°C 2.4°F-16.4°C 58% 11.0 mph NW17.7 kmh NW 15.0 mph24.1 kmh 30.35 in1027.8 mb 0.00 in0.0 mm 0.00 in0.0 mm 0.00 in0.0 mm
06:52 AM 14.7°F-9.6°C 2.4°F-16.4°C 58% 11.0 mph NW17.7 kmh NW 13.0 mph20.9 kmh 30.35 in1027.8 mb 0.00 in0.0 mm 0.00 in0.0 mm 0.00 in0.0 mm
06:57 AM 14.7°F-9.6°C 2.4°F-16.4°C 58% 9.0 mph WNW14.5 kmh WNW 17.0 mph27.4 kmh 30.35 in1027.8 mb 0.00 in0.0 mm 0.00 in0.0 mm 0.00 in0.0 mm
07:02 AM 14.7°F-9.6°C 2.4°F-16.4°C 58% 10.0 mph NW16.1 kmh NW 17.0 mph27.4 kmh 30.36 in1028.1 mb 0.00 in0.0 mm 0.00 in0.0 mm 0.00 in0.0 mm
07:07 AM 14.7°F-9.6°C 2.4°F-16.4°C 58% 6.0 mph NW9.7 kmh NW 17.0 mph27.4 kmh 30.36 in1028.1 mb 0.00 in0.0 mm 0.00 in0.0 mm 0.00 in0.0 mm
07:12 AM 14.7°F-9.6°C 2.4°F-16.4°C 58% 13.0 mph WNW20.9 kmh WNW 17.0 mph27.4 kmh 30.36 in1028.1 mb 0.00 in0.0 mm 0.00 in0.0 mm 0.00 in0.0 mm
07:17 AM 14.7°F-9.6°C 2.4°F-16.4°C 58% 5.0 mph NW8.0 kmh NW 17.0 mph27.4 kmh 30.36 in1028.1 mb 0.00 in0.0 mm 0.00 in0.0 mm 0.00 in0.0 mm
07:22 AM 14.6°F-9.7°C 2.4°F-16.4°C 58% 14.0 mph NW22.5 kmh NW 17.0 mph27.4 kmh 30.36 in1028.1 mb 0.00 in0.0 mm 0.00 in0.0 mm 0.00 in0.0 mm
07:27 AM 14.7°F-9.6°C 2.4°F-16.4°C 58% 8.0 mph W12.9 kmh W 15.0 mph24.1 kmh 30.37 in1028.4 mb 0.00 in0.0 mm 0.00 in0.0 mm 0.00 in0.0 mm
07:32 AM 14.6°F-9.7°C 2.0°F-16.7°C 57% 14.0 mph NW22.5 kmh NW 16.0 mph25.7 kmh 30.37 in1028.4 mb 0.00 in0.0 mm 0.00 in0.0 mm 0.00 in0.0 mm
07:37 AM 14.7°F-9.6°C 2.1°F-16.6°C 57% 8.0 mph WNW12.9 kmh WNW 16.0 mph25.7 kmh 30.37 in1028.4 mb 0.00 in0.0 mm 0.00 in0.0 mm 0.00 in0.0 mm
07:42 AM 14.7°F-9.6°C 2.1°F-16.6°C 57% 11.0 mph NW17.7 kmh NW 16.0 mph25.7 kmh 30.37 in1028.4 mb 0.00 in0.0 mm 0.00 in0.0 mm 0.00 in0.0 mm
07:47 AM 14.7°F-9.6°C 2.1°F-16.6°C 57% 10.0 mph WNW16.1 kmh WNW 17.0 mph27.4 kmh 30.37 in1028.4 mb 0.00 in0.0 mm 0.00 in0.0 mm 0.00 in0.0 mm
07:52 AM 14.8°F-9.6°C 2.2°F-16.6°C 57% 14.0 mph WNW22.5 kmh WNW 17.0 mph27.4 kmh 30.38 in1028.8 mb 0.00 in0.0 mm 0.00 in0.0 mm 0.00 in0.0 mm
07:57 AM 14.8°F-9.6°C 2.5°F-16.4°C 58% 10.0 mph WSW16.1 kmh WSW 18.0 mph29.0 kmh 30.38 in1028.8 mb 0.00 in0.0 mm 0.00 in0.0 mm 0.00 in0.0 mm
08:02 AM 14.8°F-9.6°C 2.2°F-16.6°C 57% 6.0 mph N9.7 kmh N 21.0 mph33.8 kmh 30.38 in1028.8 mb 0.00 in0.0 mm 0.00 in0.0 mm 0.00 in0.0 mm
08:07 AM 14.8°F-9.6°C 2.2°F-16.6°C 57% 7.0 mph WNW11.3 kmh WNW 21.0 mph33.8 kmh 30.38 in1028.8 mb 0.00 in0.0 mm 0.00 in0.0 mm 0.00 in0.0 mm
08:12 AM 14.8°F-9.6°C 2.2°F-16.6°C 57% 14.0 mph WNW22.5 kmh WNW 21.0 mph33.8 kmh 30.39 in1029.1 mb 0.00 in0.0 mm 0.00 in0.0 mm 0.00 in0.0 mm
08:17 AM 14.8°F-9.6°C 2.2°F-16.6°C 57% 7.0 mph NW11.3 kmh NW 21.0 mph33.8 kmh 30.39 in1029.1 mb 0.00 in0.0 mm 0.00 in0.0 mm 0.00 in0.0 mm
08:22 AM 14.8°F-9.6°C 1.8°F-16.8°C 56% 2.0 mph WNW3.2 kmh WNW 19.0 mph30.6 kmh 30.39 in1029.1 mb 0.00 in0.0 mm 0.00 in0.0 mm 0.00 in0.0 mm
08:27 AM 14.9°F-9.5°C 1.9°F-16.7°C 56% 10.0 mph WNW16.1 kmh WNW 19.0 mph30.6 kmh 30.39 in1029.1 mb 0.00 in0.0 mm 0.00 in0.0 mm 0.00 in0.0 mm
08:32 AM 14.9°F-9.5°C 1.5°F-16.9°C 55% 14.0 mph NW22.5 kmh NW 18.0 mph29.0 kmh 30.39 in1029.1 mb 0.00 in0.0 mm 0.00 in0.0 mm 0.00 in0.0 mm
08:37 AM 15.0°F-9.4°C 1.6°F-16.9°C 55% 5.0 mph WNW8.0 kmh WNW 18.0 mph29.0 kmh 30.39 in1029.1 mb 0.00 in0.0 mm 0.00 in0.0 mm 0.00 in0.0 mm
08:42 AM 15.0°F-9.4°C 1.6°F-16.9°C 55% 9.0 mph WNW14.5 kmh WNW 18.0 mph29.0 kmh 30.39 in1029.1 mb 0.00 in0.0 mm 0.00 in0.0 mm 0.00 in0.0 mm
08:47 AM 15.1°F-9.4°C 2.0°F-16.7°C 56% 10.0 mph NW16.1 kmh NW 18.0 mph29.0 kmh 30.40 in1029.5 mb 0.00 in0.0 mm 0.00 in0.0 mm 0.00 in0.0 mm
08:52 AM 15.1°F-9.4°C 1.6°F-16.9°C 55% 6.0 mph NNE9.7 kmh NNE 19.0 mph30.6 kmh 30.40 in1029.5 mb 0.00 in0.0 mm 0.00 in0.0 mm 0.00 in0.0 mm
08:57 AM 15.1°F-9.4°C 1.6°F-16.9°C 55% 9.0 mph WNW14.5 kmh WNW 19.0 mph30.6 kmh 30.40 in1029.5 mb 0.00 in0.0 mm 0.00 in0.0 mm 0.00 in0.0 mm
09:02 AM 15.1°F-9.4°C 1.6°F-16.9°C 55% 3.0 mph NNW4.8 kmh NNW 19.0 mph30.6 kmh 30.40 in1029.5 mb 0.00 in0.0 mm 0.00 in0.0 mm 0.00 in0.0 mm
09:07 AM 15.2°F-9.3°C 1.3°F-17.1°C 54% 4.0 mph W6.4 kmh W 19.0 mph30.6 kmh 30.41 in1029.8 mb 0.00 in0.0 mm 0.00 in0.0 mm 0.00 in0.0 mm
09:12 AM 15.4°F-9.2°C 1.9°F-16.7°C 55% 10.0 mph NW16.1 kmh NW 19.0 mph30.6 kmh 30.41 in1029.8 mb 0.00 in0.0 mm 0.00 in0.0 mm 0.00 in0.0 mm
09:17 AM 15.5°F-9.2°C 2.0°F-16.7°C 55% 4.0 mph NW6.4 kmh NW 19.0 mph30.6 kmh 30.41 in1029.8 mb 0.00 in0.0 mm 0.00 in0.0 mm 0.00 in0.0 mm
09:22 AM 15.6°F-9.1°C 2.1°F-16.6°C 55% 8.0 mph WNW12.9 kmh WNW 22.0 mph35.4 kmh 30.41 in1029.8 mb 0.00 in0.0 mm 0.00 in0.0 mm 0.00 in0.0 mm
09:27 AM 15.6°F-9.1°C 2.5°F-16.4°C 56% 4.0 mph WNW6.4 kmh WNW 22.0 mph35.4 kmh 30.41 in1029.8 mb 0.00 in0.0 mm 0.00 in0.0 mm 0.00 in0.0 mm
09:32 AM 15.7°F-9.1°C 2.6°F-16.3°C 56% 8.0 mph W12.9 kmh W 22.0 mph35.4 kmh 30.41 in1029.8 mb 0.00 in0.0 mm 0.00 in0.0 mm 0.00 in0.0 mm
09:37 AM 15.7°F-9.1°C 2.6°F-16.3°C 56% 7.0 mph NW11.3 kmh NW 22.0 mph35.4 kmh 30.41 in1029.8 mb 0.00 in0.0 mm 0.00 in0.0 mm 0.00 in0.0 mm
09:42 AM 15.8°F-9.0°C 2.7°F-16.3°C 56% 9.0 mph NW14.5 kmh NW 18.0 mph29.0 kmh 30.41 in1029.8 mb 0.00 in0.0 mm 0.00 in0.0 mm 0.00 in0.0 mm
09:47 AM 15.9°F-8.9°C 2.8°F-16.2°C 56% 14.0 mph NW22.5 kmh NW 18.0 mph29.0 kmh 30.41 in1029.8 mb 0.00 in0.0 mm 0.00 in0.0 mm 0.00 in0.0 mm
09:52 AM 15.9°F-8.9°C 2.8°F-16.2°C 56% 12.0 mph W19.3 kmh W 20.0 mph32.2 kmh 30.42 in1030.1 mb 0.00 in0.0 mm 0.00 in0.0 mm 0.00 in0.0 mm
09:57 AM 15.9°F-8.9°C 2.8°F-16.2°C 56% 15.0 mph NW24.1 kmh NW 20.0 mph32.2 kmh 30.42 in1030.1 mb 0.00 in0.0 mm 0.00 in0.0 mm 0.00 in0.0 mm
10:02 AM 15.9°F-8.9°C 2.4°F-16.4°C 55% 8.0 mph WNW12.9 kmh WNW 20.0 mph32.2 kmh 30.43 in1030.5 mb 0.00 in0.0 mm 0.00 in0.0 mm 0.00 in0.0 mm
10:07 AM 16.0°F-8.9°C 2.5°F-16.4°C 55% 9.0 mph WNW14.5 kmh WNW 20.0 mph32.2 kmh 30.43 in1030.5 mb 0.00 in0.0 mm 0.00 in0.0 mm 0.00 in0.0 mm
10:12 AM 16.0°F-8.9°C 2.5°F-16.4°C 55% 11.0 mph WNW17.7 kmh WNW 18.0 mph29.0 kmh 30.43 in1030.5 mb 0.00 in0.0 mm 0.00 in0.0 mm 0.00 in0.0 mm
10:17 AM 16.2°F-8.8°C 2.7°F-16.3°C 55% 10.0 mph WNW16.1 kmh WNW 18.0 mph29.0 kmh 30.43 in1030.5 mb 0.00 in0.0 mm 0.00 in0.0 mm 0.00 in0.0 mm
10:22 AM 16.2°F-8.8°C 2.3°F-16.5°C 54% 5.0 mph W8.0 kmh W 18.0 mph29.0 kmh 30.43 in1030.5 mb 0.00 in0.0 mm 0.00 in0.0 mm 0.00 in0.0 mm
10:27 AM 16.1°F-8.8°C 1.8°F-16.8°C 53% 12.0 mph WNW19.3 kmh WNW 18.0 mph29.0 kmh 30.44 in1030.8 mb 0.00 in0.0 mm 0.00 in0.0 mm 0.00 in0.0 mm
10:32 AM 16.1°F-8.8°C 1.8°F-16.8°C 53% 6.0 mph WSW9.7 kmh WSW 18.0 mph29.0 kmh 30.44 in1030.8 mb 0.00 in0.0 mm 0.00 in0.0 mm 0.00 in0.0 mm
10:37 AM 16.2°F-8.8°C 2.3°F-16.5°C 54% 7.0 mph WNW11.3 kmh WNW 18.0 mph29.0 kmh 30.44 in1030.8 mb 0.00 in0.0 mm 0.00 in0.0 mm 0.00 in0.0 mm
10:42 AM 16.4°F-8.7°C 2.0°F-16.7°C 53% 12.0 mph W19.3 kmh W 15.0 mph24.1 kmh 30.44 in1030.8 mb 0.00 in0.0 mm 0.00 in0.0 mm 0.00 in0.0 mm
10:47 AM 16.4°F-8.7°C 1.6°F-16.9°C 52% 6.0 mph WNW9.7 kmh WNW 15.0 mph24.1 kmh 30.45 in1031.2 mb 0.00 in0.0 mm 0.00 in0.0 mm 0.00 in0.0 mm
10:52 AM 16.3°F-8.7°C 1.5°F-16.9°C 52% 4.0 mph NW6.4 kmh NW 18.0 mph29.0 kmh 30.45 in1031.2 mb 0.00 in0.0 mm 0.00 in0.0 mm 0.00 in0.0 mm
10:57 AM 16.2°F-8.8°C 1.8°F-16.8°C 53% 9.0 mph NW14.5 kmh NW 18.0 mph29.0 kmh 30.45 in1031.2 mb 0.00 in0.0 mm 0.00 in0.0 mm 0.00 in0.0 mm
11:02 AM 16.2°F-8.8°C 2.3°F-16.5°C 54% 6.0 mph NW9.7 kmh NW 18.0 mph29.0 kmh 30.45 in1031.2 mb 0.00 in0.0 mm 0.00 in0.0 mm 0.00 in0.0 mm
11:07 AM 16.3°F-8.7°C 2.4°F-16.4°C 54% 8.0 mph NW12.9 kmh NW 18.0 mph29.0 kmh 30.45 in1031.2 mb 0.00 in0.0 mm 0.00 in0.0 mm 0.00 in0.0 mm
11:12 AM 16.5°F-8.6°C 3.0°F-16.1°C 55% 8.0 mph WNW12.9 kmh WNW 17.0 mph27.4 kmh 30.46 in1031.5 mb 0.00 in0.0 mm 0.00 in0.0 mm 0.00 in0.0 mm
11:17 AM 16.5°F-8.6°C 3.0°F-16.1°C 55% 4.0 mph W6.4 kmh W 17.0 mph27.4 kmh 30.46 in1031.5 mb 0.00 in0.0 mm 0.00 in0.0 mm 0.00 in0.0 mm
11:22 AM 16.4°F-8.7°C 2.4°F-16.4°C 54% 4.0 mph NW6.4 kmh NW 14.0 mph22.5 kmh 30.46 in1031.5 mb 0.00 in0.0 mm 0.00 in0.0 mm 0.00 in0.0 mm
11:27 AM 16.6°F-8.6°C 3.0°F-16.1°C 55% 5.0 mph W8.0 kmh W 18.0 mph29.0 kmh 30.46 in1031.5 mb 0.00 in0.0 mm 0.00 in0.0 mm 0.00 in0.0 mm
11:32 AM 16.9°F-8.4°C 3.3°F-15.9°C 55% 11.0 mph WNW17.7 kmh WNW 18.0 mph29.0 kmh 30.46 in1031.5 mb 0.00 in0.0 mm 0.00 in0.0 mm 0.00 in0.0 mm
11:37 AM 17.0°F-8.3°C 2.6°F-16.3°C 53% 10.0 mph NW16.1 kmh NW 18.0 mph29.0 kmh 30.46 in1031.5 mb 0.00 in0.0 mm 0.00 in0.0 mm 0.00 in0.0 mm
11:42 AM 17.6°F-8.0°C 3.1°F-16.1°C 53% 8.0 mph WNW12.9 kmh WNW 18.0 mph29.0 kmh 30.46 in1031.5 mb 0.00 in0.0 mm 0.00 in0.0 mm 0.00 in0.0 mm
11:47 AM 18.5°F-7.5°C 4.0°F-15.6°C 53% 7.0 mph WNW11.3 kmh WNW 17.0 mph27.4 kmh 30.46 in1031.5 mb 0.00 in0.0 mm 0.00 in0.0 mm 0.00 in0.0 mm
11:52 AM 18.3°F-7.6°C 2.9°F-16.2°C 51% 9.0 mph W14.5 kmh W 17.0 mph27.4 kmh 30.46 in1031.5 mb 0.00 in0.0 mm 0.00 in0.0 mm 0.00 in0.0 mm
11:57 AM 17.6°F-8.0°C 2.3°F-16.5°C 51% 7.0 mph WNW11.3 kmh WNW 17.0 mph27.4 kmh 30.47 in1031.8 mb 0.00 in0.0 mm 0.00 in0.0 mm 0.00 in0.0 mm
12:02 PM 17.5°F-8.1°C 3.1°F-16.1°C 53% 6.0 mph WNW9.7 kmh WNW 17.0 mph27.4 kmh 30.47 in1031.8 mb 0.00 in0.0 mm 0.00 in0.0 mm 0.00 in0.0 mm
12:07 PM 17.5°F-8.1°C 3.1°F-16.1°C 53% 9.0 mph W14.5 kmh W 17.0 mph27.4 kmh 30.47 in1031.8 mb 0.00 in0.0 mm 0.00 in0.0 mm 0.00 in0.0 mm
12:12 PM 17.5°F-8.1°C 2.6°F-16.3°C 52% 7.0 mph NW11.3 kmh NW 17.0 mph27.4 kmh 30.47 in1031.8 mb 0.00 in0.0 mm 0.00 in0.0 mm 0.00 in0.0 mm
12:17 PM 17.6°F-8.0°C 3.1°F-16.1°C 53% 7.0 mph W11.3 kmh W 17.0 mph27.4 kmh 30.46 in1031.5 mb 0.00 in0.0 mm 0.00 in0.0 mm 0.00 in0.0 mm
12:22 PM 17.2°F-8.2°C 2.3°F-16.5°C 52% 6.0 mph W9.7 kmh W 17.0 mph27.4 kmh 30.46 in1031.5 mb 0.00 in0.0 mm 0.00 in0.0 mm 0.00 in0.0 mm
12:27 PM 17.1°F-8.3°C 2.7°F-16.3°C 53% 14.0 mph WSW22.5 kmh WSW 16.0 mph25.7 kmh 30.46 in1031.5 mb 0.00 in0.0 mm 0.00 in0.0 mm 0.00 in0.0 mm
12:32 PM 17.2°F-8.2°C 2.8°F-16.2°C 53% 8.0 mph W12.9 kmh W 16.0 mph25.7 kmh 30.47 in1031.8 mb 0.00 in0.0 mm 0.00 in0.0 mm 0.00 in0.0 mm
12:37 PM 17.2°F-8.2°C 3.2°F-16.0°C 54% 11.0 mph NW17.7 kmh NW 19.0 mph30.6 kmh 30.47 in1031.8 mb 0.00 in0.0 mm 0.00 in0.0 mm 0.00 in0.0 mm
12:42 PM 17.0°F-8.3°C 3.8°F-15.7°C 56% 9.0 mph NW14.5 kmh NW 19.0 mph30.6 kmh 30.47 in1031.8 mb 0.00 in0.0 mm 0.00 in0.0 mm 0.00 in0.0 mm
12:47 PM 16.8°F-8.4°C 3.6°F-15.8°C 56% 6.0 mph NW9.7 kmh NW 19.0 mph30.6 kmh 30.46 in1031.5 mb 0.00 in0.0 mm 0.00 in0.0 mm 0.00 in0.0 mm
12:52 PM 16.9°F-8.4°C 3.3°F-15.9°C 55% 5.0 mph NW8.0 kmh NW 19.0 mph30.6 kmh 30.46 in1031.5 mb 0.00 in0.0 mm 0.00 in0.0 mm 0.00 in0.0 mm
12:57 PM 17.1°F-8.3°C 3.5°F-15.8°C 55% 9.0 mph WNW14.5 kmh WNW 14.0 mph22.5 kmh 30.46 in1031.5 mb 0.00 in0.0 mm 0.00 in0.0 mm 0.00 in0.0 mm
01:02 PM 17.3°F-8.2°C 3.3°F-15.9°C 54% 4.0 mph N6.4 kmh N 14.0 mph22.5 kmh 30.46 in1031.5 mb 0.00 in0.0 mm 0.00 in0.0 mm 0.00 in0.0 mm
01:07 PM 17.4°F-8.1°C 3.4°F-15.9°C 54% 8.0 mph NW12.9 kmh NW 14.0 mph22.5 kmh 30.46 in1031.5 mb 0.00 in0.0 mm 0.00 in0.0 mm 0.00 in0.0 mm
01:12 PM 17.7°F-7.9°C 3.7°F-15.7°C 54% 7.0 mph NW11.3 kmh NW 14.0 mph22.5 kmh 30.46 in1031.5 mb 0.00 in0.0 mm 0.00 in0.0 mm 0.00 in0.0 mm
01:17 PM 17.8°F-7.9°C 3.3°F-15.9°C 53% 6.0 mph WNW9.7 kmh WNW 14.0 mph22.5 kmh 30.46 in1031.5 mb 0.00 in0.0 mm 0.00 in0.0 mm 0.00 in0.0 mm
01:22 PM 17.6°F-8.0°C 3.1°F-16.1°C 53% 7.0 mph WNW11.3 kmh WNW 14.0 mph22.5 kmh 30.46 in1031.5 mb 0.00 in0.0 mm 0.00 in0.0 mm 0.00 in0.0 mm
01:27 PM 17.7°F-7.9°C 3.2°F-16.0°C 53% 6.0 mph WNW9.7 kmh WNW 17.0 mph27.4 kmh 30.46 in1031.5 mb 0.00 in0.0 mm 0.00 in0.0 mm 0.00 in0.0 mm
01:32 PM 17.8°F-7.9°C 3.8°F-15.7°C 54% 6.0 mph W9.7 kmh W 17.0 mph27.4 kmh 30.46 in1031.5 mb 0.00 in0.0 mm 0.00 in0.0 mm 0.00 in0.0 mm
01:37 PM 17.9°F-7.8°C 3.8°F-15.7°C 54% 10.0 mph WSW16.1 kmh WSW 17.0 mph27.4 kmh 30.46 in1031.5 mb 0.00 in0.0 mm 0.00 in0.0 mm 0.00 in0.0 mm
01:42 PM 18.0°F-7.8°C 3.1°F-16.1°C 52% 5.0 mph W8.0 kmh W 17.0 mph27.4 kmh 30.45 in1031.2 mb 0.00 in0.0 mm 0.00 in0.0 mm 0.00 in0.0 mm
01:47 PM 18.2°F-7.7°C 2.8°F-16.2°C 51% 7.0 mph WSW11.3 kmh WSW 17.0 mph27.4 kmh 30.45 in1031.2 mb 0.00 in0.0 mm 0.00 in0.0 mm 0.00 in0.0 mm
01:52 PM 17.9°F-7.8°C 2.1°F-16.6°C 50% 11.0 mph WNW17.7 kmh WNW 17.0 mph27.4 kmh 30.45 in1031.2 mb 0.00 in0.0 mm 0.00 in0.0 mm 0.00 in0.0 mm
01:57 PM 18.1°F-7.7°C 2.3°F-16.5°C 50% 8.0 mph W12.9 kmh W 17.0 mph27.4 kmh 30.45 in1031.2 mb 0.00 in0.0 mm 0.00 in0.0 mm 0.00 in0.0 mm
02:02 PM 18.0°F-7.8°C 2.7°F-16.3°C 51% 12.0 mph W19.3 kmh W 17.0 mph27.4 kmh 30.45 in1031.2 mb 0.00 in0.0 mm 0.00 in0.0 mm 0.00 in0.0 mm
02:07 PM 18.0°F-7.8°C 2.7°F-16.3°C 51% 9.0 mph W14.5 kmh W 16.0 mph25.7 kmh 30.45 in1031.2 mb 0.00 in0.0 mm 0.00 in0.0 mm 0.00 in0.0 mm
02:12 PM 18.0°F-7.8°C 3.1°F-16.1°C 52% 6.0 mph W9.7 kmh W 16.0 mph25.7 kmh 30.45 in1031.2 mb 0.00 in0.0 mm 0.00 in0.0 mm 0.00 in0.0 mm
02:17 PM 18.1°F-7.7°C 2.7°F-16.3°C 51% 6.0 mph W9.7 kmh W 16.0 mph25.7 kmh 30.44 in1030.8 mb 0.00 in0.0 mm 0.00 in0.0 mm 0.00 in0.0 mm
02:22 PM 18.0°F-7.8°C 2.7°F-16.3°C 51% 8.0 mph W12.9 kmh W 16.0 mph25.7 kmh 30.45 in1031.2 mb 0.00 in0.0 mm 0.00 in0.0 mm 0.00 in0.0 mm
02:27 PM 18.0°F-7.8°C 2.7°F-16.3°C 51% 5.0 mph W8.0 kmh W 15.0 mph24.1 kmh 30.44 in1030.8 mb 0.00 in0.0 mm 0.00 in0.0 mm 0.00 in0.0 mm
02:32 PM 18.2°F-7.7°C 3.7°F-15.7°C 53% 8.0 mph WSW12.9 kmh WSW 15.0 mph24.1 kmh 30.45 in1031.2 mb 0.00 in0.0 mm 0.00 in0.0 mm 0.00 in0.0 mm
02:37 PM 18.4°F-7.6°C 3.5°F-15.8°C 52% 4.0 mph W6.4 kmh W 11.0 mph17.7 kmh 30.44 in1030.8 mb 0.00 in0.0 mm 0.00 in0.0 mm 0.00 in0.0 mm
02:42 PM 18.5°F-7.5°C 3.1°F-16.1°C 51% 7.0 mph SW11.3 kmh SW 11.0 mph17.7 kmh 30.44 in1030.8 mb 0.00 in0.0 mm 0.00 in0.0 mm 0.00 in0.0 mm
02:47 PM 18.6°F-7.4°C 3.2°F-16.0°C 51% 9.0 mph WSW14.5 kmh WSW 12.0 mph19.3 kmh 30.44 in1030.8 mb 0.00 in0.0 mm 0.00 in0.0 mm 0.00 in0.0 mm
02:52 PM 18.3°F-7.6°C 2.5°F-16.4°C 50% 8.0 mph W12.9 kmh W 18.0 mph29.0 kmh 30.44 in1030.8 mb 0.00 in0.0 mm 0.00 in0.0 mm 0.00 in0.0 mm
02:57 PM 18.2°F-7.7°C 3.7°F-15.7°C 53% 5.0 mph W8.0 kmh W 18.0 mph29.0 kmh 30.43 in1030.5 mb 0.00 in0.0 mm 0.00 in0.0 mm 0.00 in0.0 mm
03:02 PM 18.1°F-7.7°C 5.2°F-14.9°C 57% 5.0 mph W8.0 kmh W 18.0 mph29.0 kmh 30.43 in1030.5 mb 0.00 in0.0 mm 0.00 in0.0 mm 0.00 in0.0 mm
03:07 PM 17.9°F-7.8°C 5.1°F-14.9°C 57% 4.0 mph WSW6.4 kmh WSW 18.0 mph29.0 kmh 30.44 in1030.8 mb 0.00 in0.0 mm 0.00 in0.0 mm 0.00 in0.0 mm
03:12 PM 17.9°F-7.8°C 4.7°F-15.2°C 56% 7.0 mph WSW11.3 kmh WSW 15.0 mph24.1 kmh 30.44 in1030.8 mb 0.00 in0.0 mm 0.00 in0.0 mm 0.00 in0.0 mm
03:17 PM 18.2°F-7.7°C 4.5°F-15.3°C 55% 4.0 mph SW6.4 kmh SW 15.0 mph24.1 kmh 30.43 in1030.5 mb 0.00 in0.0 mm 0.00 in0.0 mm 0.00 in0.0 mm
03:22 PM 18.5°F-7.5°C 4.4°F-15.3°C 54% 12.0 mph WSW19.3 kmh WSW 13.0 mph20.9 kmh 30.43 in1030.5 mb 0.00 in0.0 mm 0.00 in0.0 mm 0.00 in0.0 mm
03:27 PM 18.7°F-7.4°C 4.2°F-15.4°C 53% 6.0 mph WSW9.7 kmh WSW 13.0 mph20.9 kmh 30.43 in1030.5 mb 0.00 in0.0 mm 0.00 in0.0 mm 0.00 in0.0 mm
03:32 PM 18.7°F-7.4°C 4.2°F-15.4°C 53% 4.0 mph SW6.4 kmh SW 13.0 mph20.9 kmh 30.43 in1030.5 mb 0.00 in0.0 mm 0.00 in0.0 mm 0.00 in0.0 mm
03:37 PM 18.8°F-7.3°C 4.3°F-15.4°C 53% 7.0 mph SW11.3 kmh SW 13.0 mph20.9 kmh 30.43 in1030.5 mb 0.00 in0.0 mm 0.00 in0.0 mm 0.00 in0.0 mm
03:42 PM 18.7°F-7.4°C 4.2°F-15.4°C 53% 9.0 mph W14.5 kmh W 11.0 mph17.7 kmh 30.43 in1030.5 mb 0.00 in0.0 mm 0.00 in0.0 mm 0.00 in0.0 mm
03:47 PM 18.7°F-7.4°C 4.2°F-15.4°C 53% 4.0 mph W6.4 kmh W 14.0 mph22.5 kmh 30.44 in1030.8 mb 0.00 in0.0 mm 0.00 in0.0 mm 0.00 in0.0 mm
03:52 PM 18.6°F-7.4°C 4.1°F-15.5°C 53% 4.0 mph W6.4 kmh W 14.0 mph22.5 kmh 30.44 in1030.8 mb 0.00 in0.0 mm 0.00 in0.0 mm 0.00 in0.0 mm
03:57 PM 18.6°F-7.4°C 4.5°F-15.3°C 54% 4.0 mph WSW6.4 kmh WSW 14.0 mph22.5 kmh 30.43 in1030.5 mb 0.00 in0.0 mm 0.00 in0.0 mm 0.00 in0.0 mm
04:02 PM 18.7°F-7.4°C 4.6°F-15.2°C 54% 4.0 mph SW6.4 kmh SW 14.0 mph22.5 kmh 30.43 in1030.5 mb 0.00 in0.0 mm 0.00 in0.0 mm 0.00 in0.0 mm
04:07 PM 18.7°F-7.4°C 4.2°F-15.4°C 53% 5.0 mph SW8.0 kmh SW 14.0 mph22.5 kmh 30.43 in1030.5 mb 0.00 in0.0 mm 0.00 in0.0 mm 0.00 in0.0 mm
04:12 PM 18.7°F-7.4°C 4.2°F-15.4°C 53% 6.0 mph WSW9.7 kmh WSW 14.0 mph22.5 kmh 30.43 in1030.5 mb 0.00 in0.0 mm 0.00 in0.0 mm 0.00 in0.0 mm
04:17 PM 18.7°F-7.4°C 4.2°F-15.4°C 53% 3.0 mph WNW4.8 kmh WNW 14.0 mph22.5 kmh 30.43 in1030.5 mb 0.00 in0.0 mm 0.00 in0.0 mm 0.00 in0.0 mm
04:22 PM 18.7°F-7.4°C 4.2°F-15.4°C 53% 5.0 mph WSW8.0 kmh WSW 14.0 mph22.5 kmh 30.43 in1030.5 mb 0.00 in0.0 mm 0.00 in0.0 mm 0.00 in0.0 mm
04:27 PM 18.7°F-7.4°C 4.2°F-15.4°C 53% 8.0 mph W12.9 kmh W 12.0 mph19.3 kmh 30.43 in1030.5 mb 0.00 in0.0 mm 0.00 in0.0 mm 0.00 in0.0 mm
04:32 PM 18.7°F-7.4°C 3.7°F-15.7°C 52% 5.0 mph WSW8.0 kmh WSW 13.0 mph20.9 kmh 30.43 in1030.5 mb 0.00 in0.0 mm 0.00 in0.0 mm 0.00 in0.0 mm
04:37 PM 18.7°F-7.4°C 3.7°F-15.7°C 52% 4.0 mph WSW6.4 kmh WSW 13.0 mph20.9 kmh 30.43 in1030.5 mb 0.00 in0.0 mm 0.00 in0.0 mm 0.00 in0.0 mm
04:42 PM 18.7°F-7.4°C 4.2°F-15.4°C 53% 2.0 mph WSW3.2 kmh WSW 13.0 mph20.9 kmh 30.43 in1030.5 mb 0.00 in0.0 mm 0.00 in0.0 mm 0.00 in0.0 mm
04:47 PM 18.7°F-7.4°C 4.2°F-15.4°C 53% 6.0 mph WSW9.7 kmh WSW 13.0 mph20.9 kmh 30.43 in1030.5 mb 0.00 in0.0 mm 0.00 in0.0 mm 0.00 in0.0 mm
04:52 PM 18.7°F-7.4°C 3.7°F-15.7°C 52% 6.0 mph WSW9.7 kmh WSW 7.0 mph11.3 kmh 30.43 in1030.5 mb 0.00 in0.0 mm 0.00 in0.0 mm 0.00 in0.0 mm
04:57 PM 18.7°F-7.4°C 4.2°F-15.4°C 53% 5.0 mph SW8.0 kmh SW 13.0 mph20.9 kmh 30.43 in1030.5 mb 0.00 in0.0 mm 0.00 in0.0 mm 0.00 in0.0 mm
05:02 PM 18.6°F-7.4°C 4.5°F-15.3°C 54% 6.0 mph WSW9.7 kmh WSW 13.0 mph20.9 kmh 30.43 in1030.5 mb 0.00 in0.0 mm 0.00 in0.0 mm 0.00 in0.0 mm
05:07 PM 18.5°F-7.5°C 5.2°F-14.9°C 56% 5.0 mph WSW8.0 kmh WSW 13.0 mph20.9 kmh 30.43 in1030.5 mb 0.00 in0.0 mm 0.00 in0.0 mm 0.00 in0.0 mm
05:12 PM 18.5°F-7.5°C 5.6°F-14.7°C 57% 6.0 mph WSW9.7 kmh WSW 13.0 mph20.9 kmh 30.43 in1030.5 mb 0.00 in0.0 mm 0.00 in0.0 mm 0.00 in0.0 mm
05:17 PM 18.5°F-7.5°C 5.6°F-14.7°C 57% 5.0 mph WSW8.0 kmh WSW 10.0 mph16.1 kmh 30.43 in1030.5 mb 0.00 in0.0 mm 0.00 in0.0 mm 0.00 in0.0 mm
05:22 PM 18.4°F-7.6°C 5.5°F-14.7°C 57% 2.0 mph WSW3.2 kmh WSW 10.0 mph16.1 kmh 30.43 in1030.5 mb 0.00 in0.0 mm 0.00 in0.0 mm 0.00 in0.0 mm
05:27 PM 18.4°F-7.6°C 5.5°F-14.7°C 57% 9.0 mph SW14.5 kmh SW 9.0 mph14.5 kmh 30.43 in1030.5 mb 0.00 in0.0 mm 0.00 in0.0 mm 0.00 in0.0 mm
05:32 PM 18.4°F-7.6°C 5.1°F-14.9°C 56% 8.0 mph WSW12.9 kmh WSW 10.0 mph16.1 kmh 30.43 in1030.5 mb 0.00 in0.0 mm 0.00 in0.0 mm 0.00 in0.0 mm
05:37 PM 18.4°F-7.6°C 5.1°F-14.9°C 56% 6.0 mph WSW9.7 kmh WSW 12.0 mph19.3 kmh 30.43 in1030.5 mb 0.00 in0.0 mm 0.00 in0.0 mm 0.00 in0.0 mm
05:42 PM 18.3°F-7.6°C 5.0°F-15.0°C 56% 5.0 mph WSW8.0 kmh WSW 13.0 mph20.9 kmh 30.44 in1030.8 mb 0.00 in0.0 mm 0.00 in0.0 mm 0.00 in0.0 mm
05:47 PM 18.3°F-7.6°C 5.0°F-15.0°C 56% 5.0 mph SW8.0 kmh SW 13.0 mph20.9 kmh 30.43 in1030.5 mb 0.00 in0.0 mm 0.00 in0.0 mm 0.00 in0.0 mm
05:52 PM 18.3°F-7.6°C 5.0°F-15.0°C 56% 8.0 mph SW12.9 kmh SW 13.0 mph20.9 kmh 30.43 in1030.5 mb 0.00 in0.0 mm 0.00 in0.0 mm 0.00 in0.0 mm
05:57 PM 18.3°F-7.6°C 5.0°F-15.0°C 56% 7.0 mph WSW11.3 kmh WSW 13.0 mph20.9 kmh 30.43 in1030.5 mb 0.00 in0.0 mm 0.00 in0.0 mm 0.00 in0.0 mm
06:02 PM 18.4°F-7.6°C 5.1°F-14.9°C 56% 5.0 mph WSW8.0 kmh WSW 13.0 mph20.9 kmh 30.43 in1030.5 mb 0.00 in0.0 mm 0.00 in0.0 mm 0.00 in0.0 mm
06:07 PM 18.4°F-7.6°C 5.1°F-14.9°C 56% 5.0 mph SW8.0 kmh SW 13.0 mph20.9 kmh 30.44 in1030.8 mb 0.00 in0.0 mm 0.00 in0.0 mm 0.00 in0.0 mm
06:12 PM 18.4°F-7.6°C 4.7°F-15.2°C 55% 4.0 mph WSW6.4 kmh WSW 13.0 mph20.9 kmh 30.44 in1030.8 mb 0.00 in0.0 mm 0.00 in0.0 mm 0.00 in0.0 mm
06:17 PM 18.4°F-7.6°C 4.7°F-15.2°C 55% 4.0 mph WSW6.4 kmh WSW 14.0 mph22.5 kmh 30.44 in1030.8 mb 0.00 in0.0 mm 0.00 in0.0 mm 0.00 in0.0 mm
06:22 PM 18.4°F-7.6°C 4.3°F-15.4°C 54% 8.0 mph WSW12.9 kmh WSW 14.0 mph22.5 kmh 30.44 in1030.8 mb 0.00 in0.0 mm 0.00 in0.0 mm 0.00 in0.0 mm
06:27 PM 18.4°F-7.6°C 4.3°F-15.4°C 54% 10.0 mph SW16.1 kmh SW 15.0 mph24.1 kmh 30.44 in1030.8 mb 0.00 in0.0 mm 0.00 in0.0 mm 0.00 in0.0 mm
06:32 PM 18.3°F-7.6°C 3.8°F-15.7°C 53% 7.0 mph WSW11.3 kmh WSW 16.0 mph25.7 kmh 30.44 in1030.8 mb 0.00 in0.0 mm 0.00 in0.0 mm 0.00 in0.0 mm
06:37 PM 18.3°F-7.6°C 3.8°F-15.7°C 53% 6.0 mph W9.7 kmh W 16.0 mph25.7 kmh 30.45 in1031.2 mb 0.00 in0.0 mm 0.00 in0.0 mm 0.00 in0.0 mm
06:42 PM 18.3°F-7.6°C 3.8°F-15.7°C 53% 10.0 mph WSW16.1 kmh WSW 17.0 mph27.4 kmh 30.45 in1031.2 mb 0.00 in0.0 mm 0.00 in0.0 mm 0.00 in0.0 mm
06:47 PM 18.3°F-7.6°C 4.2°F-15.4°C 54% 5.0 mph WSW8.0 kmh WSW 17.0 mph27.4 kmh 30.45 in1031.2 mb 0.00 in0.0 mm 0.00 in0.0 mm 0.00 in0.0 mm
06:52 PM 18.3°F-7.6°C 4.2°F-15.4°C 54% 4.0 mph WSW6.4 kmh WSW 17.0 mph27.4 kmh 30.45 in1031.2 mb 0.00 in0.0 mm 0.00 in0.0 mm 0.00 in0.0 mm
06:57 PM 18.3°F-7.6°C 4.6°F-15.2°C 55% 10.0 mph W16.1 kmh W 17.0 mph27.4 kmh 30.45 in1031.2 mb 0.00 in0.0 mm 0.00 in0.0 mm 0.00 in0.0 mm
07:02 PM 18.3°F-7.6°C 4.6°F-15.2°C 55% 8.0 mph W12.9 kmh W 15.0 mph24.1 kmh 30.45 in1031.2 mb 0.00 in0.0 mm 0.00 in0.0 mm 0.00 in0.0 mm
07:07 PM 18.3°F-7.6°C 5.0°F-15.0°C 56% 6.0 mph SW9.7 kmh SW 15.0 mph24.1 kmh 30.45 in1031.2 mb 0.00 in0.0 mm 0.00 in0.0 mm 0.00 in0.0 mm
07:12 PM 18.3°F-7.6°C 5.0°F-15.0°C 56% 6.0 mph SW9.7 kmh SW 10.0 mph16.1 kmh 30.45 in1031.2 mb 0.00 in0.0 mm 0.00 in0.0 mm 0.00 in0.0 mm
07:17 PM 18.3°F-7.6°C 5.0°F-15.0°C 56% 7.0 mph WNW11.3 kmh WNW 11.0 mph17.7 kmh 30.45 in1031.2 mb 0.00 in0.0 mm 0.00 in0.0 mm 0.00 in0.0 mm
07:22 PM 18.2°F-7.7°C 4.5°F-15.3°C 55% 4.0 mph SW6.4 kmh SW 11.0 mph17.7 kmh 30.45 in1031.2 mb 0.00 in0.0 mm 0.00 in0.0 mm 0.00 in0.0 mm
07:27 PM 18.2°F-7.7°C 4.9°F-15.1°C 56% 5.0 mph WSW8.0 kmh WSW 11.0 mph17.7 kmh 30.45 in1031.2 mb 0.00 in0.0 mm 0.00 in0.0 mm 0.00 in0.0 mm
07:32 PM 18.2°F-7.7°C 4.9°F-15.1°C 56% 3.0 mph WSW4.8 kmh WSW 11.0 mph17.7 kmh 30.45 in1031.2 mb 0.00 in0.0 mm 0.00 in0.0 mm 0.00 in0.0 mm
07:37 PM 18.2°F-7.7°C 4.9°F-15.1°C 56% 3.0 mph WSW4.8 kmh WSW 9.0 mph14.5 kmh 30.45 in1031.2 mb 0.00 in0.0 mm 0.00 in0.0 mm 0.00 in0.0 mm
07:42 PM 18.2°F-7.7°C 4.9°F-15.1°C 56% 6.0 mph W9.7 kmh W 9.0 mph14.5 kmh 30.45 in1031.2 mb 0.00 in0.0 mm 0.00 in0.0 mm 0.00 in0.0 mm
07:47 PM 18.1°F-7.7°C 4.8°F-15.1°C 56% 3.0 mph WSW4.8 kmh WSW 9.0 mph14.5 kmh 30.45 in1031.2 mb 0.00 in0.0 mm 0.00 in0.0 mm 0.00 in0.0 mm
07:52 PM 18.1°F-7.7°C 4.8°F-15.1°C 56% 5.0 mph SW8.0 kmh SW 9.0 mph14.5 kmh 30.45 in1031.2 mb 0.00 in0.0 mm 0.00 in0.0 mm 0.00 in0.0 mm
07:57 PM 18.0°F-7.8°C 4.8°F-15.1°C 56% 4.0 mph WSW6.4 kmh WSW 9.0 mph14.5 kmh 30.45 in1031.2 mb 0.00 in0.0 mm 0.00 in0.0 mm 0.00 in0.0 mm
08:02 PM 17.9°F-7.8°C 5.1°F-14.9°C 57% 4.0 mph SW6.4 kmh SW 9.0 mph14.5 kmh 30.45 in1031.2 mb 0.00 in0.0 mm 0.00 in0.0 mm 0.00 in0.0 mm
08:07 PM 17.8°F-7.9°C 5.0°F-15.0°C 57% 7.0 mph WSW11.3 kmh WSW 10.0 mph16.1 kmh 30.45 in1031.2 mb 0.00 in0.0 mm 0.00 in0.0 mm 0.00 in0.0 mm
08:12 PM 17.8°F-7.9°C 5.4°F-14.8°C 58% 5.0 mph WSW8.0 kmh WSW 10.0 mph16.1 kmh 30.45 in1031.2 mb 0.00 in0.0 mm 0.00 in0.0 mm 0.00 in0.0 mm
08:17 PM 17.7°F-7.9°C 5.3°F-14.8°C 58% 3.0 mph WSW4.8 kmh WSW 10.0 mph16.1 kmh 30.45 in1031.2 mb 0.00 in0.0 mm 0.00 in0.0 mm 0.00 in0.0 mm
08:22 PM 17.7°F-7.9°C 5.3°F-14.8°C 58% 3.0 mph WSW4.8 kmh WSW 10.0 mph16.1 kmh 30.45 in1031.2 mb 0.00 in0.0 mm 0.00 in0.0 mm 0.00 in0.0 mm
08:27 PM 17.7°F-7.9°C 5.7°F-14.6°C 59% 4.0 mph WSW6.4 kmh WSW 7.0 mph11.3 kmh 30.44 in1030.8 mb 0.00 in0.0 mm 0.00 in0.0 mm 0.00 in0.0 mm
08:32 PM 17.7°F-7.9°C 5.7°F-14.6°C 59% 2.0 mph WSW3.2 kmh WSW 7.0 mph11.3 kmh 30.44 in1030.8 mb 0.00 in0.0 mm 0.00 in0.0 mm 0.00 in0.0 mm
08:37 PM 17.6°F-8.0°C 5.6°F-14.7°C 59% 4.0 mph WSW6.4 kmh WSW 6.0 mph9.7 kmh 30.44 in1030.8 mb 0.00 in0.0 mm 0.00 in0.0 mm 0.00 in0.0 mm
08:42 PM 17.6°F-8.0°C 5.6°F-14.7°C 59% 2.0 mph WSW3.2 kmh WSW 6.0 mph9.7 kmh 30.44 in1030.8 mb 0.00 in0.0 mm 0.00 in0.0 mm 0.00 in0.0 mm
08:47 PM 17.6°F-8.0°C 5.6°F-14.7°C 59% 3.0 mph WSW4.8 kmh WSW 5.0 mph8.0 kmh 30.44 in1030.8 mb 0.00 in0.0 mm 0.00 in0.0 mm 0.00 in0.0 mm
08:52 PM 17.6°F-8.0°C 5.9°F-14.5°C 60% 1.0 mph SW1.6 kmh SW 7.0 mph11.3 kmh 30.44 in1030.8 mb 0.00 in0.0 mm 0.00 in0.0 mm 0.00 in0.0 mm
08:57 PM 17.7°F-7.9°C 6.0°F-14.4°C 60% 1.0 mph WSW1.6 kmh WSW 7.0 mph11.3 kmh 30.44 in1030.8 mb 0.00 in0.0 mm 0.00 in0.0 mm 0.00 in0.0 mm
09:02 PM 17.7°F-7.9°C 6.4°F-14.2°C 61% 2.0 mph WSW3.2 kmh WSW 7.0 mph11.3 kmh 30.43 in1030.5 mb 0.00 in0.0 mm 0.00 in0.0 mm 0.00 in0.0 mm
09:07 PM 17.6°F-8.0°C 6.3°F-14.3°C 61% 3.0 mph SSW4.8 kmh SSW 7.0 mph11.3 kmh 30.44 in1030.8 mb 0.00 in0.0 mm 0.00 in0.0 mm 0.00 in0.0 mm
09:12 PM 17.5°F-8.1°C 6.2°F-14.3°C 61% 3.0 mph WSW4.8 kmh WSW 6.0 mph9.7 kmh 30.44 in1030.8 mb 0.00 in0.0 mm 0.00 in0.0 mm 0.00 in0.0 mm
09:17 PM 17.4°F-8.1°C 6.1°F-14.4°C 61% 4.0 mph WSW6.4 kmh WSW 7.0 mph11.3 kmh 30.43 in1030.5 mb 0.00 in0.0 mm 0.00 in0.0 mm 0.00 in0.0 mm
09:22 PM 17.3°F-8.2°C 6.0°F-14.4°C 61% 3.0 mph WSW4.8 kmh WSW 7.0 mph11.3 kmh 30.44 in1030.8 mb 0.00 in0.0 mm 0.00 in0.0 mm 0.00 in0.0 mm
09:27 PM 17.3°F-8.2°C 6.0°F-14.4°C 61% 4.0 mph WSW6.4 kmh WSW 7.0 mph11.3 kmh 30.43 in1030.5 mb 0.00 in0.0 mm 0.00 in0.0 mm 0.00 in0.0 mm
09:32 PM 17.2°F-8.2°C 5.9°F-14.5°C 61% 2.0 mph WSW3.2 kmh WSW 7.0 mph11.3 kmh 30.43 in1030.5 mb 0.00 in0.0 mm 0.00 in0.0 mm 0.00 in0.0 mm
09:37 PM 17.1°F-8.3°C 5.8°F-14.6°C 61% 4.0 mph SW6.4 kmh SW 6.0 mph9.7 kmh 30.43 in1030.5 mb 0.00 in0.0 mm 0.00 in0.0 mm 0.00 in0.0 mm
09:42 PM 17.0°F-8.3°C 6.1°F-14.4°C 62% 2.0 mph SW3.2 kmh SW 6.0 mph9.7 kmh 30.43 in1030.5 mb 0.00 in0.0 mm 0.00 in0.0 mm 0.00 in0.0 mm
09:47 PM 16.9°F-8.4°C 6.0°F-14.4°C 62% 1.0 mph WSW1.6 kmh WSW 4.0 mph6.4 kmh 30.43 in1030.5 mb 0.00 in0.0 mm 0.00 in0.0 mm 0.00 in0.0 mm
09:52 PM 16.7°F-8.5°C 5.8°F-14.6°C 62% 2.0 mph SW3.2 kmh SW 4.0 mph6.4 kmh 30.43 in1030.5 mb 0.00 in0.0 mm 0.00 in0.0 mm 0.00 in0.0 mm
09:57 PM 16.6°F-8.6°C 5.7°F-14.6°C 62% 2.0 mph SW3.2 kmh SW 3.0 mph4.8 kmh 30.43 in1030.5 mb 0.00 in0.0 mm 0.00 in0.0 mm 0.00 in0.0 mm
10:02 PM 16.5°F-8.6°C 5.6°F-14.7°C 62% 2.0 mph SW3.2 kmh SW 4.0 mph6.4 kmh 30.43 in1030.5 mb 0.00 in0.0 mm 0.00 in0.0 mm 0.00 in0.0 mm
10:07 PM 16.4°F-8.7°C 5.9°F-14.5°C 63% 2.0 mph SW3.2 kmh SW 4.0 mph6.4 kmh 30.43 in1030.5 mb 0.00 in0.0 mm 0.00 in0.0 mm 0.00 in0.0 mm
10:12 PM 16.3°F-8.7°C 5.8°F-14.6°C 63% 1.0 mph SW1.6 kmh SW 5.0 mph8.0 kmh 30.43 in1030.5 mb 0.00 in0.0 mm 0.00 in0.0 mm 0.00 in0.0 mm
10:17 PM 16.2°F-8.8°C 5.7°F-14.6°C 63% 2.0 mph SW3.2 kmh SW 5.0 mph8.0 kmh 30.43 in1030.5 mb 0.00 in0.0 mm 0.00 in0.0 mm 0.00 in0.0 mm
10:22 PM 16.2°F-8.8°C 6.1°F-14.4°C 64% 4.0 mph SW6.4 kmh SW 6.0 mph9.7 kmh 30.43 in1030.5 mb 0.00 in0.0 mm 0.00 in0.0 mm 0.00 in0.0 mm
10:27 PM 16.1°F-8.8°C 6.0°F-14.4°C 64% 2.0 mph SW3.2 kmh SW 6.0 mph9.7 kmh 30.43 in1030.5 mb 0.00 in0.0 mm 0.00 in0.0 mm 0.00 in0.0 mm
10:32 PM 16.1°F-8.8°C 6.0°F-14.4°C 64% 3.0 mph SSW4.8 kmh SSW 6.0 mph9.7 kmh 30.42 in1030.1 mb 0.00 in0.0 mm 0.00 in0.0 mm 0.00 in0.0 mm
10:37 PM 16.1°F-8.8°C 6.0°F-14.4°C 64% 6.0 mph SW9.7 kmh SW 7.0 mph11.3 kmh 30.42 in1030.1 mb 0.00 in0.0 mm 0.00 in0.0 mm 0.00 in0.0 mm
10:42 PM 16.0°F-8.9°C 5.9°F-14.5°C 64% 3.0 mph SW4.8 kmh SW 7.0 mph11.3 kmh 30.42 in1030.1 mb 0.00 in0.0 mm 0.00 in0.0 mm 0.00 in0.0 mm
10:47 PM 15.9°F-8.9°C 5.8°F-14.6°C 64% 6.0 mph SW9.7 kmh SW 8.0 mph12.9 kmh 30.42 in1030.1 mb 0.00 in0.0 mm 0.00 in0.0 mm 0.00 in0.0 mm
10:52 PM 15.9°F-8.9°C 5.8°F-14.6°C 64% 9.0 mph WSW14.5 kmh WSW 9.0 mph14.5 kmh 30.42 in1030.1 mb 0.00 in0.0 mm 0.00 in0.0 mm 0.00 in0.0 mm
10:57 PM 15.9°F-8.9°C 6.1°F-14.4°C 65% 4.0 mph SW6.4 kmh SW 9.0 mph14.5 kmh 30.42 in1030.1 mb 0.00 in0.0 mm 0.00 in0.0 mm 0.00 in0.0 mm
11:02 PM 15.8°F-9.0°C 6.0°F-14.4°C 65% 6.0 mph WSW9.7 kmh WSW 10.0 mph16.1 kmh 30.42 in1030.1 mb 0.00 in0.0 mm 0.00 in0.0 mm 0.00 in0.0 mm
11:07 PM 15.8°F-9.0°C 6.0°F-14.4°C 65% 5.0 mph SW8.0 kmh SW 10.0 mph16.1 kmh 30.42 in1030.1 mb 0.00 in0.0 mm 0.00 in0.0 mm 0.00 in0.0 mm
11:12 PM 15.8°F-9.0°C 6.0°F-14.4°C 65% 8.0 mph SW12.9 kmh SW 10.0 mph16.1 kmh 30.42 in1030.1 mb 0.00 in0.0 mm 0.00 in0.0 mm 0.00 in0.0 mm
11:17 PM 15.8°F-9.0°C 6.0°F-14.4°C 65% 8.0 mph SW12.9 kmh SW 10.0 mph16.1 kmh 30.42 in1030.1 mb 0.00 in0.0 mm 0.00 in0.0 mm 0.00 in0.0 mm
11:22 PM 15.8°F-9.0°C 6.0°F-14.4°C 65% 7.0 mph WSW11.3 kmh WSW 9.0 mph14.5 kmh 30.42 in1030.1 mb 0.00 in0.0 mm 0.00 in0.0 mm 0.00 in0.0 mm
11:27 PM 15.8°F-9.0°C 6.0°F-14.4°C 65% 9.0 mph SW14.5 kmh SW 9.0 mph14.5 kmh 30.42 in1030.1 mb 0.00 in0.0 mm 0.00 in0.0 mm 0.00 in0.0 mm
11:32 PM 15.7°F-9.1°C 5.9°F-14.5°C 65% 6.0 mph WSW9.7 kmh WSW 9.0 mph14.5 kmh 30.41 in1029.8 mb 0.00 in0.0 mm 0.00 in0.0 mm 0.00 in0.0 mm
11:37 PM 15.7°F-9.1°C 5.9°F-14.5°C 65% 6.0 mph SW9.7 kmh SW 10.0 mph16.1 kmh 30.41 in1029.8 mb 0.00 in0.0 mm 0.00 in0.0 mm 0.00 in0.0 mm
11:42 PM 15.7°F-9.1°C 5.9°F-14.5°C 65% 6.0 mph WSW9.7 kmh WSW 10.0 mph16.1 kmh 30.41 in1029.8 mb 0.00 in0.0 mm 0.00 in0.0 mm 0.00 in0.0 mm
11:47 PM 15.7°F-9.1°C 5.9°F-14.5°C 65% 6.0 mph SW9.7 kmh SW 10.0 mph16.1 kmh 30.41 in1029.8 mb 0.00 in0.0 mm 0.00 in0.0 mm 0.00 in0.0 mm
11:52 PM 15.7°F-9.1°C 5.9°F-14.5°C 65% 7.0 mph WSW11.3 kmh WSW 10.0 mph16.1 kmh 30.41 in1029.8 mb 0.00 in0.0 mm 0.00 in0.0 mm 0.00 in0.0 mm
11:57 PM 15.7°F-9.1°C 5.9°F-14.5°C 65% 6.0 mph WSW9.7 kmh WSW 10.0 mph16.1 kmh 30.41 in1029.8 mb 0.00 in0.0 mm 0.00 in0.0 mm 0.00 in0.0 mm